Guasti, California
Current Conditions -  °F | °C
As of 2:53 AM on Sunday 23 Nov 2014 (Local Time) from KONT Reporting Station
Haze Haze  
Wind Chill: 54°   Ceiling: Unl
Heat Index: 54°   Visibility: 6mi
Dew Point: 51°   Wind: 3mph
Humidity: 90%   Direction: 220°SW
Pressure: 30.06"   Gusts: NA
Location:  34.07°N, 117.59°W
Report Text: KONT 231053Z 22003KT 6SM BR FEW017 12/11 A3006 RMK AO2 SLP172 T01220106
Loading
Personal Weather Stations






























Interactive Weather Map New forecast layout! Learn more

10-Day Weather Forecast

Advertisements
Track Severe Weather on mobile